sensor_id;sensor_type;location;lat;lon;timestamp;P1;durP1;ratioP1;P2;durP2;ratioP2
7169;SDS011;3626;42.656;23.312;2022-12-18T00:00:03;8.13;;;5.53;;
7169;SDS011;3626;42.656;23.312;2022-12-18T00:00:11;7.98;;;5.55;;
7169;SDS011;3626;42.656;23.312;2022-12-18T00:00:18;8.80;;;5.77;;
7169;SDS011;3626;42.656;23.312;2022-12-18T00:00:24;9.97;;;5.80;;
7169;SDS011;3626;42.656;23.312;2022-12-18T00:00:30;9.93;;;5.75;;
7169;SDS011;3626;42.656;23.312;2022-12-18T00:00:39;9.07;;;5.55;;
7169;SDS011;3626;42.656;23.312;2022-12-18T00:00:45;9.71;;;5.79;;
7169;SDS011;3626;42.656;23.312;2022-12-18T00:00:52;9.62;;;5.74;;
7169;SDS011;3626;42.656;23.312;2022-12-18T00:00:57;9.30;;;5.55;;
7169;SDS011;3626;42.656;23.312;2022-12-18T00:01:03;9.48;;;5.50;;
7169;SDS011;3626;42.656;23.312;2022-12-18T00:01:14;9.60;;;5.40;;
7169;SDS011;3626;42.656;23.312;2022-12-18T00:01:22;8.49;;;5.20;;
7169;SDS011;3626;42.656;23.312;2022-12-18T00:01:30;7.62;;;5.17;;
7169;SDS011;3626;42.656;23.312;2022-12-18T00:01:38;8.30;;;5.43;;
7169;SDS011;3626;42.656;23.312;2022-12-18T00:01:44;8.04;;;5.30;;
7169;SDS011;3626;42.656;23.312;2022-12-18T00:01:50;8.18;;;5.22;;
7169;SDS011;3626;42.656;23.312;2022-12-18T00:01:56;7.95;;;5.15;;
7169;SDS011;3626;42.656;23.312;2022-12-18T00:02:03;7.97;;;5.10;;
7169;SDS011;3626;42.656;23.312;2022-12-18T00:02:08;7.97;;;5.07;;
7169;SDS011;3626;42.656;23.312;2022-12-18T00:02:14;7.57;;;4.80;;
7169;SDS011;3626;42.656;23.312;2022-12-18T00:02:20;7.55;;;4.70;;
7169;SDS011;3626;42.656;23.312;2022-12-18T00:02:27;7.63;;;4.87;;
7169;SDS011;3626;42.656;23.312;2022-12-18T00:02:32;7.90;;;4.85;;
7169;SDS011;3626;42.656;23.312;2022-12-18T00:02:38;8.95;;;4.90;;
7169;SDS011;3626;42.656;23.312;2022-12-18T00:02:44;9.10;;;4.93;;
7169;SDS011;3626;42.656;23.312;2022-12-18T00:02:50;9.27;;;5.07;;
7169;SDS011;3626;42.656;23.312;2022-12-18T00:02:56;9.85;;;5.20;;
7169;SDS011;3626;42.656;23.312;2022-12-18T00:03:02;9.85;;;5.15;;
7169;SDS011;3626;42.656;23.312;2022-12-18T00:03:07;9.90;;;5.20;;
7169;SDS011;3626;42.656;23.312;2022-12-18T00:03:13;9.88;;;5.32;;
7169;SDS011;3626;42.656;23.312;2022-12-18T00:03:19;10.25;;;5.57;;
7169;SDS011;3626;42.656;23.312;2022-12-18T00:03:25;10.38;;;5.60;;
7169;SDS011;3626;42.656;23.312;2022-12-18T00:03:31;9.90;;;5.30;;
7169;SDS011;3626;42.656;23.312;2022-12-18T00:03:37;8.45;;;5.20;;
7169;SDS011;3626;42.656;23.312;2022-12-18T00:03:43;8.38;;;5.22;;
7169;SDS011;3626;42.656;23.312;2022-12-18T00:03:49;8.48;;;5.20;;
7169;SDS011;3626;42.656;23.312;2022-12-18T00:03:55;8.57;;;5.20;;
7169;SDS011;3626;42.656;23.312;2022-12-18T00:04:02;8.77;;;5.38;;
7169;SDS011;3626;42.656;23.312;2022-12-18T00:04:15;9.06;;;5.52;;
7169;SDS011;3626;42.656;23.312;2022-12-18T00:04:26;9.66;;;5.70;;
7169;SDS011;3626;42.656;23.312;2022-12-18T00:04:32;9.77;;;5.80;;
7169;SDS011;3626;42.656;23.312;2022-12-18T00:04:38;10.52;;;5.95;;
7169;SDS011;3626;42.656;23.312;2022-12-18T00:04:44;10.40;;;5.97;;
7169;SDS011;3626;42.656;23.312;2022-12-18T00:04:50;10.27;;;6.00;;
7169;SDS011;3626;42.656;23.312;2022-12-18T00:04:55;9.70;;;5.93;;
7169;SDS011;3626;42.656;23.312;2022-12-18T00:05:01;9.20;;;5.82;;
7169;SDS011;3626;42.656;23.312;2022-12-18T00:05:07;8.77;;;5.72;;
7169;SDS011;3626;42.656;23.312;2022-12-18T00:05:13;8.45;;;5.60;;
7169;SDS011;3626;42.656;23.312;2022-12-18T00:05:18;8.10;;;5.50;;
7169;SDS011;3626;42.656;23.312;2022-12-18T00:05:24;7.93;;;5.38;;
7169;SDS011;3626;42.656;23.312;2022-12-18T00:05:31;7.70;;;5.20;;
7169;SDS011;3626;42.656;23.312;2022-12-18T00:05:45;6.97;;;5.10;;
7169;SDS011;3626;42.656;23.312;2022-12-18T00:05:51;6.81;;;5.06;;
7169;SDS011;3626;42.656;23.312;2022-12-18T00:05:57;6.80;;;5.00;;
7169;SDS011;3626;42.656;23.312;2022-12-18T00:06:03;6.87;;;5.03;;
7169;SDS011;3626;42.656;23.312;2022-12-18T00:06:09;6.78;;;4.97;;
7169;SDS011;3626;42.656;23.312;2022-12-18T00:06:15;6.72;;;4.93;;
7169;SDS011;3626;42.656;23.312;2022-12-18T00:06:21;7.30;;;5.20;;
7169;SDS011;3626;42.656;23.312;2022-12-18T00:06:28;7.97;;;5.45;;
7169;SDS011;3626;42.656;23.312;2022-12-18T00:06:35;8.20;;;5.60;;
7169;SDS011;3626;42.656;23.312;2022-12-18T00:06:41;8.00;;;5.60;;
7169;SDS011;3626;42.656;23.312;2022-12-18T00:06:46;8.20;;;5.63;;
7169;SDS011;3626;42.656;23.312;2022-12-18T00:06:52;8.30;;;5.78;;
7169;SDS011;3626;42.656;23.312;2022-12-18T00:06:59;8.50;;;5.73;;
7169;SDS011;3626;42.656;23.312;2022-12-18T00:07:05;8.88;;;5.88;;
7169;SDS011;3626;42.656;23.312;2022-12-18T00:07:10;9.18;;;6.00;;
7169;SDS011;3626;42.656;23.312;2022-12-18T00:07:16;9.20;;;5.97;;
7169;SDS011;3626;42.656;23.312;2022-12-18T00:07:22;8.70;;;5.68;;
7169;SDS011;3626;42.656;23.312;2022-12-18T00:07:27;8.23;;;5.50;;
7169;SDS011;3626;42.656;23.312;2022-12-18T00:07:33;8.17;;;5.43;;
7169;SDS011;3626;42.656;23.312;2022-12-18T00:07:39;8.32;;;5.40;;
7169;SDS011;3626;42.656;23.312;2022-12-18T00:07:44;8.60;;;5.47;;
7169;SDS011;3626;42.656;23.312;2022-12-18T00:07:50;8.53;;;5.33;;
7169;SDS011;3626;42.656;23.312;2022-12-18T00:07:56;8.48;;;5.30;;
7169;SDS011;3626;42.656;23.312;2022-12-18T00:08:01;8.05;;;5.30;;
7169;SDS011;3626;42.656;23.312;2022-12-18T00:08:07;8.10;;;5.30;;
7169;SDS011;3626;42.656;23.312;2022-12-18T00:08:13;8.05;;;5.30;;
7169;SDS011;3626;42.656;23.312;2022-12-18T00:08:19;8.05;;;5.40;;
7169;SDS011;3626;42.656;23.312;2022-12-18T00:08:25;7.87;;;5.47;;
7169;SDS011;3626;42.656;23.312;2022-12-18T00:08:31;8.17;;;5.57;;
7169;SDS011;3626;42.656;23.312;2022-12-18T00:08:37;8.15;;;5.53;;
7169;SDS011;3626;42.656;23.312;2022-12-18T00:08:43;7.93;;;5.43;;
7169;SDS011;3626;42.656;23.312;2022-12-18T00:08:49;7.90;;;5.50;;
7169;SDS011;3626;42.656;23.312;2022-12-18T00:08:56;8.10;;;5.60;;
7169;SDS011;3626;42.656;23.312;2022-12-18T00:09:02;8.16;;;5.60;;
7169;SDS011;3626;42.656;23.312;2022-12-18T00:09:08;7.93;;;5.50;;
7169;SDS011;3626;42.656;23.312;2022-12-18T00:09:14;7.80;;;5.40;;
7169;SDS011;3626;42.656;23.312;2022-12-18T00:09:20;8.25;;;5.47;;
7169;SDS011;3626;42.656;23.312;2022-12-18T00:09:26;8.30;;;5.57;;
7169;SDS011;3626;42.656;23.312;2022-12-18T00:09:32;8.30;;;5.60;;
7169;SDS011;3626;42.656;23.312;2022-12-18T00:09:38;8.73;;;5.70;;
7169;SDS011;3626;42.656;23.312;2022-12-18T00:09:44;8.52;;;5.60;;
7169;SDS011;3626;42.656;23.312;2022-12-18T00:09:50;8.40;;;5.60;;
7169;SDS011;3626;42.656;23.312;2022-12-18T00:09:56;8.52;;;5.60;;
7169;SDS011;3626;42.656;23.312;2022-12-18T00:10:02;8.77;;;5.50;;
7169;SDS011;3626;42.656;23.312;2022-12-18T00:10:08;8.86;;;5.50;;
7169;SDS011;3626;42.656;23.312;2022-12-18T00:10:14;9.10;;;5.50;;
7169;SDS011;3626;42.656;23.312;2022-12-18T00:10:22;8.57;;;5.33;;
7169;SDS011;3626;42.656;23.312;2022-12-18T00:10:28;8.27;;;5.15;;
7169;SDS011;3626;42.656;23.312;2022-12-18T00:10:34;8.00;;;5.03;;
7169;SDS011;3626;42.656;23.312;2022-12-18T00:10:40;8.27;;;5.17;;
7169;SDS011;3626;42.656;23.312;2022-12-18T00:10:45;8.48;;;5.20;;
7169;SDS011;3626;42.656;23.312;2022-12-18T00:10:51;8.68;;;5.25;;
7169;SDS011;3626;42.656;23.312;2022-12-18T00:11:02;8.80;;;5.30;;
7169;SDS011;3626;42.656;23.312;2022-12-18T00:11:11;8.82;;;5.49;;
7169;SDS011;3626;42.656;23.312;2022-12-18T00:11:20;9.30;;;5.80;;
7169;SDS011;3626;42.656;23.312;2022-12-18T00:11:28;9.97;;;5.97;;
7169;SDS011;3626;42.656;23.312;2022-12-18T00:11:34;10.27;;;6.00;;
7169;SDS011;3626;42.656;23.312;2022-12-18T00:11:40;10.57;;;5.95;;
7169;SDS011;3626;42.656;23.312;2022-12-18T00:11:46;10.47;;;5.83;;
7169;SDS011;3626;42.656;23.312;2022-12-18T00:11:52;10.40;;;5.90;;
7169;SDS011;3626;42.656;23.312;2022-12-18T00:11:58;10.30;;;5.80;;
7169;SDS011;3626;42.656;23.312;2022-12-18T00:12:04;9.90;;;5.70;;
7169;SDS011;3626;42.656;23.312;2022-12-18T00:12:10;9.70;;;5.70;;
7169;SDS011;3626;42.656;23.312;2022-12-18T00:12:15;9.73;;;5.70;;
7169;SDS011;3626;42.656;23.312;2022-12-18T00:12:21;9.77;;;5.72;;
7169;SDS011;3626;42.656;23.312;2022-12-18T00:12:28;9.52;;;5.70;;
7169;SDS011;3626;42.656;23.312;2022-12-18T00:12:33;9.35;;;5.70;;
7169;SDS011;3626;42.656;23.312;2022-12-18T00:12:39;8.50;;;5.65;;
7169;SDS011;3626;42.656;23.312;2022-12-18T00:12:45;8.85;;;5.70;;
7169;SDS011;3626;42.656;23.312;2022-12-18T00:12:50;8.90;;;5.60;;
7169;SDS011;3626;42.656;23.312;2022-12-18T00:12:56;9.43;;;5.63;;
7169;SDS011;3626;42.656;23.312;2022-12-18T00:13:02;11.07;;;5.80;;
7169;SDS011;3626;42.656;23.312;2022-12-18T00:13:07;11.67;;;5.90;;
7169;SDS011;3626;42.656;23.312;2022-12-18T00:13:13;11.73;;;5.87;;
7169;SDS011;3626;42.656;23.312;2022-12-18T00:13:19;11.70;;;5.80;;
7169;SDS011;3626;42.656;23.312;2022-12-18T00:13:25;11.70;;;5.97;;
7169;SDS011;3626;42.656;23.312;2022-12-18T00:13:32;12.37;;;6.30;;
7169;SDS011;3626;42.656;23.312;2022-12-18T00:13:38;12.50;;;6.38;;
7169;SDS011;3626;42.656;23.312;2022-12-18T00:13:44;12.25;;;6.57;;
7169;SDS011;3626;42.656;23.312;2022-12-18T00:13:52;11.90;;;6.57;;
7169;SDS011;3626;42.656;23.312;2022-12-18T00:13:59;10.93;;;6.73;;
7169;SDS011;3626;42.656;23.312;2022-12-18T00:14:05;9.67;;;6.63;;
7169;SDS011;3626;42.656;23.312;2022-12-18T00:14:12;9.57;;;6.60;;
7169;SDS011;3626;42.656;23.312;2022-12-18T00:14:18;9.66;;;6.70;;
7169;SDS011;3626;42.656;23.312;2022-12-18T00:14:24;9.13;;;6.57;;
7169;SDS011;3626;42.656;23.312;2022-12-18T00:14:30;8.95;;;6.40;;
7169;SDS011;3626;42.656;23.312;2022-12-18T00:14:36;8.90;;;6.30;;
7169;SDS011;3626;42.656;23.312;2022-12-18T00:14:42;8.75;;;6.10;;
7169;SDS011;3626;42.656;23.312;2022-12-18T00:14:49;8.87;;;6.20;;
7169;SDS011;3626;42.656;23.312;2022-12-18T00:14:55;8.50;;;5.90;;
7169;SDS011;3626;42.656;23.312;2022-12-18T00:15:01;8.73;;;6.00;;
7169;SDS011;3626;42.656;23.312;2022-12-18T00:15:07;8.70;;;5.93;;
7169;SDS011;3626;42.656;23.312;2022-12-18T00:15:13;8.75;;;5.88;;
7169;SDS011;3626;42.656;23.312;2022-12-18T00:15:19;8.93;;;5.88;;
7169;SDS011;3626;42.656;23.312;2022-12-18T00:15:25;8.98;;;5.80;;
7169;SDS011;3626;42.656;23.312;2022-12-18T00:15:32;9.13;;;5.85;;
7169;SDS011;3626;42.656;23.312;2022-12-18T00:15:39;9.35;;;5.98;;
7169;SDS011;3626;42.656;23.312;2022-12-18T00:15:45;9.45;;;6.03;;
7169;SDS011;3626;42.656;23.312;2022-12-18T00:15:51;9.65;;;6.13;;
7169;SDS011;3626;42.656;23.312;2022-12-18T00:16:00;9.77;;;6.25;;
7169;SDS011;3626;42.656;23.312;2022-12-18T00:16:07;9.93;;;6.41;;
7169;SDS011;3626;42.656;23.312;2022-12-18T00:16:16;10.18;;;6.53;;
7169;SDS011;3626;42.656;23.312;2022-12-18T00:16:25;10.06;;;6.56;;
7169;SDS011;3626;42.656;23.312;2022-12-18T00:16:33;9.86;;;6.51;;
7169;SDS011;3626;42.656;23.312;2022-12-18T00:16:43;9.63;;;6.40;;
7169;SDS011;3626;42.656;23.312;2022-12-18T00:16:49;9.56;;;6.30;;
7169;SDS011;3626;42.656;23.312;2022-12-18T00:16:54;9.88;;;6.30;;
7169;SDS011;3626;42.656;23.312;2022-12-18T00:17:00;9.63;;;6.10;;
7169;SDS011;3626;42.656;23.312;2022-12-18T00:17:06;9.30;;;5.97;;
7169;SDS011;3626;42.656;23.312;2022-12-18T00:17:11;8.80;;;5.75;;
7169;SDS011;3626;42.656;23.312;2022-12-18T00:17:17;8.80;;;5.70;;
7169;SDS011;3626;42.656;23.312;2022-12-18T00:17:23;8.60;;;5.60;;
7169;SDS011;3626;42.656;23.312;2022-12-18T00:17:28;8.25;;;5.43;;
7169;SDS011;3626;42.656;23.312;2022-12-18T00:17:34;8.48;;;5.50;;
7169;SDS011;3626;42.656;23.312;2022-12-18T00:17:40;8.60;;;5.60;;
7169;SDS011;3626;42.656;23.312;2022-12-18T00:17:46;8.77;;;5.70;;
7169;SDS011;3626;42.656;23.312;2022-12-18T00:17:52;8.18;;;5.57;;
7169;SDS011;3626;42.656;23.312;2022-12-18T00:17:58;8.30;;;5.53;;
7169;SDS011;3626;42.656;23.312;2022-12-18T00:18:03;8.73;;;5.63;;
7169;SDS011;3626;42.656;23.312;2022-12-18T00:18:09;8.65;;;5.70;;
7169;SDS011;3626;42.656;23.312;2022-12-18T00:18:15;8.65;;;5.70;;
7169;SDS011;3626;42.656;23.312;2022-12-18T00:18:21;8.60;;;5.70;;
7169;SDS011;3626;42.656;23.312;2022-12-18T00:18:26;8.90;;;5.85;;
7169;SDS011;3626;42.656;23.312;2022-12-18T00:18:32;9.27;;;6.03;;
7169;SDS011;3626;42.656;23.312;2022-12-18T00:18:38;8.83;;;5.87;;
7169;SDS011;3626;42.656;23.312;2022-12-18T00:18:44;8.57;;;5.70;;
7169;SDS011;3626;42.656;23.312;2022-12-18T00:18:50;8.85;;;5.88;;
7169;SDS011;3626;42.656;23.312;2022-12-18T00:18:58;9.03;;;6.12;;
7169;SDS011;3626;42.656;23.312;2022-12-18T00:19:05;8.96;;;6.12;;
7169;SDS011;3626;42.656;23.312;2022-12-18T00:19:12;9.57;;;6.30;;
7169;SDS011;3626;42.656;23.312;2022-12-18T00:19:19;9.60;;;6.30;;
7169;SDS011;3626;42.656;23.312;2022-12-18T00:19:24;9.60;;;6.38;;
7169;SDS011;3626;42.656;23.312;2022-12-18T00:19:30;9.38;;;6.30;;
7169;SDS011;3626;42.656;23.312;2022-12-18T00:19:36;9.93;;;6.47;;
7169;SDS011;3626;42.656;23.312;2022-12-18T00:19:41;10.82;;;6.60;;
7169;SDS011;3626;42.656;23.312;2022-12-18T00:19:47;11.57;;;6.63;;
7169;SDS011;3626;42.656;23.312;2022-12-18T00:19:53;11.10;;;6.35;;
7169;SDS011;3626;42.656;23.312;2022-12-18T00:19:58;10.97;;;6.30;;
7169;SDS011;3626;42.656;23.312;2022-12-18T00:20:05;11.25;;;6.40;;
7169;SDS011;3626;42.656;23.312;2022-12-18T00:20:11;10.80;;;6.20;;
7169;SDS011;3626;42.656;23.312;2022-12-18T00:20:17;10.70;;;6.20;;
7169;SDS011;3626;42.656;23.312;2022-12-18T00:20:41;11.01;;;6.10;;
7169;SDS011;3626;42.656;23.312;2022-12-18T00:20:47;10.13;;;6.00;;
7169;SDS011;3626;42.656;23.312;2022-12-18T00:20:53;10.50;;;6.10;;
7169;SDS011;3626;42.656;23.312;2022-12-18T00:20:59;10.50;;;6.07;;
7169;SDS011;3626;42.656;23.312;2022-12-18T00:21:06;10.12;;;6.06;;
7169;SDS011;3626;42.656;23.312;2022-12-18T00:21:13;10.40;;;6.30;;
7169;SDS011;3626;42.656;23.312;2022-12-18T00:21:20;10.40;;;6.27;;
7169;SDS011;3626;42.656;23.312;2022-12-18T00:21:26;10.46;;;6.40;;
7169;SDS011;3626;42.656;23.312;2022-12-18T00:21:33;9.68;;;6.20;;
7169;SDS011;3626;42.656;23.312;2022-12-18T00:21:39;8.95;;;6.15;;
7169;SDS011;3626;42.656;23.312;2022-12-18T00:21:45;8.83;;;6.10;;
7169;SDS011;3626;42.656;23.312;2022-12-18T00:21:51;8.38;;;6.00;;
7169;SDS011;3626;42.656;23.312;2022-12-18T00:21:58;8.20;;;6.02;;
7169;SDS011;3626;42.656;23.312;2022-12-18T00:22:03;8.33;;;5.87;;
7169;SDS011;3626;42.656;23.312;2022-12-18T00:22:10;8.42;;;5.82;;
7169;SDS011;3626;42.656;23.312;2022-12-18T00:22:15;8.63;;;5.90;;
7169;SDS011;3626;42.656;23.312;2022-12-18T00:22:21;8.68;;;5.88;;
7169;SDS011;3626;42.656;23.312;2022-12-18T00:22:27;8.60;;;5.80;;
7169;SDS011;3626;42.656;23.312;2022-12-18T00:22:32;8.83;;;5.90;;
7169;SDS011;3626;42.656;23.312;2022-12-18T00:22:38;8.85;;;5.90;;
7169;SDS011;3626;42.656;23.312;2022-12-18T00:22:44;10.02;;;6.22;;
7169;SDS011;3626;42.656;23.312;2022-12-18T00:22:49;10.57;;;6.33;;
7169;SDS011;3626;42.656;23.312;2022-12-18T00:22:55;10.70;;;6.38;;
7169;SDS011;3626;42.656;23.312;2022-12-18T00:23:01;10.75;;;6.50;;
7169;SDS011;3626;42.656;23.312;2022-12-18T00:23:06;10.50;;;6.50;;
7169;SDS011;3626;42.656;23.312;2022-12-18T00:23:12;10.43;;;6.47;;
7169;SDS011;3626;42.656;23.312;2022-12-18T00:23:18;10.88;;;6.68;;
7169;SDS011;3626;42.656;23.312;2022-12-18T00:23:23;11.18;;;6.85;;
7169;SDS011;3626;42.656;23.312;2022-12-18T00:23:29;10.93;;;6.73;;
7169;SDS011;3626;42.656;23.312;2022-12-18T00:23:36;10.73;;;6.60;;
7169;SDS011;3626;42.656;23.312;2022-12-18T00:23:43;9.52;;;6.24;;
7169;SDS011;3626;42.656;23.312;2022-12-18T00:23:51;9.47;;;6.20;;
7169;SDS011;3626;42.656;23.312;2022-12-18T00:23:57;9.46;;;6.14;;
7169;SDS011;3626;42.656;23.312;2022-12-18T00:24:03;9.95;;;6.35;;
7169;SDS011;3626;42.656;23.312;2022-12-18T00:24:09;10.17;;;6.33;;
7169;SDS011;3626;42.656;23.312;2022-12-18T00:24:15;9.75;;;6.20;;
7169;SDS011;3626;42.656;23.312;2022-12-18T00:24:21;9.38;;;5.93;;
7169;SDS011;3626;42.656;23.312;2022-12-18T00:24:26;9.60;;;5.90;;
7169;SDS011;3626;42.656;23.312;2022-12-18T00:24:32;9.60;;;5.90;;
7169;SDS011;3626;42.656;23.312;2022-12-18T00:24:38;9.95;;;6.22;;
7169;SDS011;3626;42.656;23.312;2022-12-18T00:24:43;10.05;;;6.30;;
7169;SDS011;3626;42.656;23.312;2022-12-18T00:24:49;10.00;;;6.43;;
7169;SDS011;3626;42.656;23.312;2022-12-18T00:24:56;10.40;;;6.57;;
7169;SDS011;3626;42.656;23.312;2022-12-18T00:25:02;10.05;;;6.35;;
7169;SDS011;3626;42.656;23.312;2022-12-18T00:25:08;9.70;;;6.30;;
7169;SDS011;3626;42.656;23.312;2022-12-18T00:25:14;9.88;;;6.40;;
7169;SDS011;3626;42.656;23.312;2022-12-18T00:25:19;9.88;;;6.40;;
7169;SDS011;3626;42.656;23.312;2022-12-18T00:25:25;9.90;;;6.57;;
7169;SDS011;3626;42.656;23.312;2022-12-18T00:25:32;9.73;;;6.55;;
7169;SDS011;3626;42.656;23.312;2022-12-18T00:25:39;10.16;;;6.54;;
7169;SDS011;3626;42.656;23.312;2022-12-18T00:25:44;10.05;;;6.43;;
7169;SDS011;3626;42.656;23.312;2022-12-18T00:25:50;10.10;;;6.30;;
7169;SDS011;3626;42.656;23.312;2022-12-18T00:25:58;9.70;;;6.28;;
7169;SDS011;3626;42.656;23.312;2022-12-18T00:26:05;9.88;;;6.48;;
7169;SDS011;3626;42.656;23.312;2022-12-18T00:26:13;10.47;;;6.50;;
7169;SDS011;3626;42.656;23.312;2022-12-18T00:26:20;10.74;;;6.58;;
7169;SDS011;3626;42.656;23.312;2022-12-18T00:26:29;10.75;;;6.52;;
7169;SDS011;3626;42.656;23.312;2022-12-18T00:26:37;10.94;;;6.46;;
7169;SDS011;3626;42.656;23.312;2022-12-18T00:26:44;11.20;;;6.60;;
7169;SDS011;3626;42.656;23.312;2022-12-18T00:26:49;10.43;;;6.45;;
7169;SDS011;3626;42.656;23.312;2022-12-18T00:26:55;10.82;;;6.55;;
7169;SDS011;3626;42.656;23.312;2022-12-18T00:27:01;11.07;;;6.43;;
7169;SDS011;3626;42.656;23.312;2022-12-18T00:27:06;10.40;;;6.22;;
7169;SDS011;3626;42.656;23.312;2022-12-18T00:27:12;10.38;;;6.20;;
7169;SDS011;3626;42.656;23.312;2022-12-18T00:27:18;10.40;;;6.20;;
7169;SDS011;3626;42.656;23.312;2022-12-18T00:27:23;10.10;;;6.10;;
7169;SDS011;3626;42.656;23.312;2022-12-18T00:27:29;9.95;;;6.18;;
7169;SDS011;3626;42.656;23.312;2022-12-18T00:27:36;9.70;;;6.10;;
7169;SDS011;3626;42.656;23.312;2022-12-18T00:27:42;9.70;;;6.10;;
7169;SDS011;3626;42.656;23.312;2022-12-18T00:27:47;9.80;;;6.20;;
7169;SDS011;3626;42.656;23.312;2022-12-18T00:27:53;9.75;;;6.25;;
7169;SDS011;3626;42.656;23.312;2022-12-18T00:27:59;9.40;;;6.25;;
7169;SDS011;3626;42.656;23.312;2022-12-18T00:28:05;9.47;;;6.43;;
7169;SDS011;3626;42.656;23.312;2022-12-18T00:28:10;9.43;;;6.50;;
7169;SDS011;3626;42.656;23.312;2022-12-18T00:28:16;9.00;;;6.50;;
7169;SDS011;3626;42.656;23.312;2022-12-18T00:28:22;9.00;;;6.50;;
7169;SDS011;3626;42.656;23.312;2022-12-18T00:28:27;8.90;;;6.40;;
7169;SDS011;3626;42.656;23.312;2022-12-18T00:28:33;8.98;;;6.35;;
7169;SDS011;3626;42.656;23.312;2022-12-18T00:28:39;8.97;;;6.47;;
7169;SDS011;3626;42.656;23.312;2022-12-18T00:28:45;8.73;;;6.30;;
7169;SDS011;3626;42.656;23.312;2022-12-18T00:28:51;9.00;;;6.33;;
7169;SDS011;3626;42.656;23.312;2022-12-18T00:28:58;9.13;;;6.33;;
7169;SDS011;3626;42.656;23.312;2022-12-18T00:29:05;9.24;;;6.28;;
7169;SDS011;3626;42.656;23.312;2022-12-18T00:29:14;9.04;;;6.07;;
7169;SDS011;3626;42.656;23.312;2022-12-18T00:29:19;8.93;;;6.00;;
7169;SDS011;3626;42.656;23.312;2022-12-18T00:29:25;9.40;;;6.10;;
7169;SDS011;3626;42.656;23.312;2022-12-18T00:29:31;9.85;;;6.20;;
7169;SDS011;3626;42.656;23.312;2022-12-18T00:29:36;9.77;;;6.10;;
7169;SDS011;3626;42.656;23.312;2022-12-18T00:29:42;9.95;;;6.10;;
7169;SDS011;3626;42.656;23.312;2022-12-18T00:29:48;10.00;;;6.05;;
7169;SDS011;3626;42.656;23.312;2022-12-18T00:29:54;9.63;;;5.87;;
7169;SDS011;3626;42.656;23.312;2022-12-18T00:29:59;9.60;;;5.78;;
7169;SDS011;3626;42.656;23.312;2022-12-18T00:30:05;9.82;;;5.72;;
7169;SDS011;3626;42.656;23.312;2022-12-18T00:30:12;10.38;;;5.93;;
7169;SDS011;3626;42.656;23.312;2022-12-18T00:30:18;10.40;;;5.93;;
7169;SDS011;3626;42.656;23.312;2022-12-18T00:30:23;10.43;;;6.00;;
7169;SDS011;3626;42.656;23.312;2022-12-18T00:30:29;9.65;;;5.90;;
7169;SDS011;3626;42.656;23.312;2022-12-18T00:30:38;9.63;;;5.83;;
7169;SDS011;3626;42.656;23.312;2022-12-18T00:30:43;9.05;;;5.80;;
7169;SDS011;3626;42.656;23.312;2022-12-18T00:30:49;8.90;;;5.82;;
7169;SDS011;3626;42.656;23.312;2022-12-18T00:30:59;9.22;;;6.10;;
7169;SDS011;3626;42.656;23.312;2022-12-18T00:31:06;9.13;;;6.13;;
7169;SDS011;3626;42.656;23.312;2022-12-18T00:31:14;8.77;;;6.08;;
7169;SDS011;3626;42.656;23.312;2022-12-18T00:31:22;8.80;;;6.02;;
7169;SDS011;3626;42.656;23.312;2022-12-18T00:31:29;8.75;;;6.00;;
7169;SDS011;3626;42.656;23.312;2022-12-18T00:31:35;8.68;;;6.07;;
7169;SDS011;3626;42.656;23.312;2022-12-18T00:31:42;9.24;;;6.26;;
7169;SDS011;3626;42.656;23.312;2022-12-18T00:31:48;9.50;;;6.30;;
7169;SDS011;3626;42.656;23.312;2022-12-18T00:31:53;9.77;;;6.20;;
7169;SDS011;3626;42.656;23.312;2022-12-18T00:31:59;9.60;;;6.10;;
7169;SDS011;3626;42.656;23.312;2022-12-18T00:32:06;9.60;;;6.06;;
7169;SDS011;3626;42.656;23.312;2022-12-18T00:32:11;9.73;;;6.10;;
7169;SDS011;3626;42.656;23.312;2022-12-18T00:32:17;9.83;;;6.10;;
7169;SDS011;3626;42.656;23.312;2022-12-18T00:32:23;10.07;;;6.03;;
7169;SDS011;3626;42.656;23.312;2022-12-18T00:32:28;10.07;;;6.13;;
7169;SDS011;3626;42.656;23.312;2022-12-18T00:32:34;10.00;;;6.10;;
7169;SDS011;3626;42.656;23.312;2022-12-18T00:32:40;9.82;;;6.15;;
7169;SDS011;3626;42.656;23.312;2022-12-18T00:32:46;9.50;;;5.97;;
7169;SDS011;3626;42.656;23.312;2022-12-18T00:32:51;9.67;;;6.10;;
7169;SDS011;3626;42.656;23.312;2022-12-18T00:32:57;9.85;;;6.15;;
7169;SDS011;3626;42.656;23.312;2022-12-18T00:33:03;9.68;;;6.10;;
7169;SDS011;3626;42.656;23.312;2022-12-18T00:33:08;9.45;;;6.10;;
7169;SDS011;3626;42.656;23.312;2022-12-18T00:33:14;9.67;;;6.10;;
7169;SDS011;3626;42.656;23.312;2022-12-18T00:33:20;10.43;;;6.38;;
7169;SDS011;3626;42.656;23.312;2022-12-18T00:33:25;10.70;;;6.53;;
7169;SDS011;3626;42.656;23.312;2022-12-18T00:33:31;10.60;;;6.30;;
7169;SDS011;3626;42.656;23.312;2022-12-18T00:33:37;10.55;;;6.18;;
7169;SDS011;3626;42.656;23.312;2022-12-18T00:33:43;10.82;;;6.28;;
7169;SDS011;3626;42.656;23.312;2022-12-18T00:33:49;10.68;;;6.22;;
7169;SDS011;3626;42.656;23.312;2022-12-18T00:33:55;10.25;;;6.20;;
7169;SDS011;3626;42.656;23.312;2022-12-18T00:34:01;10.50;;;6.20;;
7169;SDS011;3626;42.656;23.312;2022-12-18T00:34:09;10.63;;;6.18;;
7169;SDS011;3626;42.656;23.312;2022-12-18T00:34:16;10.08;;;6.08;;
7169;SDS011;3626;42.656;23.312;2022-12-18T00:34:22;9.50;;;5.82;;
7169;SDS011;3626;42.656;23.312;2022-12-18T00:34:27;9.73;;;5.95;;
7169;SDS011;3626;42.656;23.312;2022-12-18T00:34:33;10.00;;;6.10;;
7169;SDS011;3626;42.656;23.312;2022-12-18T00:34:39;9.87;;;6.10;;
7169;SDS011;3626;42.656;23.312;2022-12-18T00:34:45;9.73;;;6.10;;
7169;SDS011;3626;42.656;23.312;2022-12-18T00:34:50;9.77;;;6.10;;
7169;SDS011;3626;42.656;23.312;2022-12-18T00:34:56;9.90;;;6.00;;
7169;SDS011;3626;42.656;23.312;2022-12-18T00:35:02;10.93;;;6.13;;
7169;SDS011;3626;42.656;23.312;2022-12-18T00:35:08;10.80;;;6.13;;
7169;SDS011;3626;42.656;23.312;2022-12-18T00:35:14;11.18;;;6.30;;
7169;SDS011;3626;42.656;23.312;2022-12-18T00:35:20;11.10;;;6.40;;
7169;SDS011;3626;42.656;23.312;2022-12-18T00:35:26;10.88;;;6.36;;
7169;SDS011;3626;42.656;23.312;2022-12-18T00:35:32;11.30;;;6.40;;
7169;SDS011;3626;42.656;23.312;2022-12-18T00:35:39;11.77;;;6.50;;
7169;SDS011;3626;42.656;23.312;2022-12-18T00:35:45;11.67;;;6.37;;
7169;SDS011;3626;42.656;23.312;2022-12-18T00:35:50;11.80;;;6.38;;
7169;SDS011;3626;42.656;23.312;2022-12-18T00:35:59;11.65;;;6.50;;
7169;SDS011;3626;42.656;23.312;2022-12-18T00:36:06;10.97;;;6.43;;
7169;SDS011;3626;42.656;23.312;2022-12-18T00:36:15;10.74;;;6.36;;
7169;SDS011;3626;42.656;23.312;2022-12-18T00:36:23;10.68;;;6.30;;
7169;SDS011;3626;42.656;23.312;2022-12-18T00:36:32;10.30;;;6.20;;
7169;SDS011;3626;42.656;23.312;2022-12-18T00:36:39;9.87;;;6.10;;
7169;SDS011;3626;42.656;23.312;2022-12-18T00:36:47;10.12;;;6.28;;
7169;SDS011;3626;42.656;23.312;2022-12-18T00:36:53;9.98;;;6.30;;
7169;SDS011;3626;42.656;23.312;2022-12-18T00:36:59;9.73;;;6.33;;
7169;SDS011;3626;42.656;23.312;2022-12-18T00:37:05;9.98;;;6.53;;
7169;SDS011;3626;42.656;23.312;2022-12-18T00:37:11;10.03;;;6.60;;
7169;SDS011;3626;42.656;23.312;2022-12-18T00:37:16;10.20;;;6.70;;
7169;SDS011;3626;42.656;23.312;2022-12-18T00:37:22;9.98;;;6.60;;
7169;SDS011;3626;42.656;23.312;2022-12-18T00:37:28;10.07;;;6.67;;
7169;SDS011;3626;42.656;23.312;2022-12-18T00:37:34;10.02;;;6.70;;
7169;SDS011;3626;42.656;23.312;2022-12-18T00:37:40;10.25;;;6.90;;
7169;SDS011;3626;42.656;23.312;2022-12-18T00:37:45;10.68;;;6.90;;
7169;SDS011;3626;42.656;23.312;2022-12-18T00:37:51;11.05;;;6.95;;
7169;SDS011;3626;42.656;23.312;2022-12-18T00:37:57;11.07;;;6.90;;
7169;SDS011;3626;42.656;23.312;2022-12-18T00:38:02;11.00;;;6.82;;
7169;SDS011;3626;42.656;23.312;2022-12-18T00:38:08;10.85;;;6.70;;
7169;SDS011;3626;42.656;23.312;2022-12-18T00:38:14;10.87;;;6.70;;
7169;SDS011;3626;42.656;23.312;2022-12-18T00:38:19;11.30;;;6.78;;
7169;SDS011;3626;42.656;23.312;2022-12-18T00:38:25;11.43;;;6.80;;
7169;SDS011;3626;42.656;23.312;2022-12-18T00:38:31;11.53;;;6.73;;